createdAt,value
2023-01-20T00:01:29.237Z,2.50
2023-01-20T00:03:57.758Z,2.51
2023-01-20T00:06:29.777Z,2.44
2023-01-20T00:09:00.443Z,2.54
2023-01-20T00:11:30.552Z,2.44
2023-01-20T00:14:00.988Z,2.38
2023-01-20T00:16:29.861Z,2.49
2023-01-20T00:18:57.478Z,2.58
2023-01-20T00:21:24.839Z,2.52
2023-01-20T00:23:52.451Z,2.23
2023-01-20T00:26:21.948Z,2.15
2023-01-20T00:28:50.086Z,2.12
2023-01-20T00:31:18.863Z,2.27
2023-01-20T00:33:47.888Z,2.25
2023-01-20T00:36:16.887Z,2.29
2023-01-20T00:38:44.970Z,2.17
2023-01-20T00:41:12.703Z,2.26
2023-01-20T00:43:40.675Z,2.19
2023-01-20T00:46:08.329Z,2.29
2023-01-20T00:48:36.539Z,2.24
2023-01-20T00:51:05.760Z,2.28
2023-01-20T00:53:33.407Z,2.24
2023-01-20T00:56:01.000Z,2.18
2023-01-20T00:58:28.369Z,2.15
2023-01-20T01:00:56.198Z,2.32
2023-01-20T01:03:23.587Z,2.23
2023-01-20T01:05:50.948Z,2.19
2023-01-20T01:08:18.328Z,2.13
2023-01-20T01:10:45.719Z,1.94
2023-01-20T01:13:13.052Z,2.01
2023-01-20T01:15:40.394Z,2.01
2023-01-20T01:18:07.695Z,1.91
2023-01-20T01:20:35.018Z,1.97
2023-01-20T01:23:02.346Z,1.96
2023-01-20T01:25:29.665Z,2.07
2023-01-20T01:27:56.975Z,2.10
2023-01-20T01:30:24.270Z,2.10
2023-01-20T01:32:51.561Z,2.11
2023-01-20T01:35:18.917Z,1.97
2023-01-20T01:37:46.349Z,2.06
2023-01-20T01:40:13.907Z,1.81
2023-01-20T01:42:42.909Z,1.59
2023-01-20T01:45:10.562Z,1.52
2023-01-20T01:47:56.207Z,1.54
2023-01-20T01:50:38.247Z,1.40
2023-01-20T01:53:07.457Z,1.59
2023-01-20T01:55:39.576Z,1.76
2023-01-20T01:58:10.533Z,1.75
2023-01-20T02:00:38.960Z,1.82
2023-01-20T02:03:07.419Z,1.53
2023-01-20T02:05:37.139Z,1.46
2023-01-20T02:08:05.311Z,1.59
2023-01-20T02:10:32.632Z,1.43
2023-01-20T02:13:00.771Z,1.53
2023-01-20T02:15:34.161Z,1.45
2023-01-20T02:18:29.597Z,1.48
2023-01-20T02:21:15.095Z,1.56
2023-01-20T02:24:07.385Z,1.51
2023-01-20T02:27:02.523Z,1.29
2023-01-20T02:29:54.106Z,1.34
2023-01-20T02:32:29.013Z,1.38
2023-01-20T02:35:07.941Z,1.34
2023-01-20T02:37:41.148Z,1.46
2023-01-20T02:40:22.201Z,1.44
2023-01-20T02:43:00.043Z,1.49
2023-01-20T02:45:37.764Z,1.57
2023-01-20T02:48:10.814Z,1.63
2023-01-20T02:50:38.156Z,1.70
2023-01-20T02:53:07.651Z,1.73
2023-01-20T02:55:40.069Z,1.63
2023-01-20T02:58:14.092Z,1.68
2023-01-20T03:00:49.410Z,1.63
2023-01-20T03:03:22.741Z,1.57
2023-01-20T03:05:55.873Z,1.54
2023-01-20T03:08:27.041Z,1.44
2023-01-20T03:10:57.713Z,1.39
2023-01-20T03:13:30.715Z,1.41
2023-01-20T03:16:06.351Z,1.32
2023-01-20T03:18:34.690Z,1.39
2023-01-20T03:21:04.118Z,1.34
2023-01-20T03:23:35.156Z,1.27
2023-01-20T03:26:07.761Z,1.20
2023-01-20T03:28:35.330Z,1.33
2023-01-20T03:31:11.936Z,1.34
2023-01-20T03:33:39.667Z,1.32
2023-01-20T03:36:07.552Z,1.28
2023-01-20T03:38:35.007Z,1.30
2023-01-20T03:41:23.017Z,1.35
2023-01-20T03:44:11.626Z,1.29
2023-01-20T03:46:52.447Z,1.25
2023-01-20T03:49:44.541Z,1.22
2023-01-20T03:52:47.442Z,1.25
2023-01-20T03:55:23.159Z,1.20
2023-01-20T03:58:03.468Z,1.20
2023-01-20T04:00:37.073Z,1.31
2023-01-20T04:03:11.459Z,1.24
2023-01-20T04:05:40.723Z,1.37
2023-01-20T04:08:10.003Z,1.40
2023-01-20T04:10:42.822Z,1.13
2023-01-20T04:13:10.249Z,1.21
2023-01-20T04:15:41.652Z,1.17
2023-01-20T04:18:19.396Z,1.21
2023-01-20T04:20:51.295Z,1.24
2023-01-20T04:23:27.893Z,1.25
2023-01-20T04:25:55.299Z,1.12
2023-01-20T04:28:22.780Z,1.07
2023-01-20T04:30:50.854Z,1.13
2023-01-20T04:33:18.361Z,1.10
2023-01-20T04:35:45.691Z,1.13
2023-01-20T04:38:13.075Z,1.14
2023-01-20T04:40:40.574Z,1.14
2023-01-20T04:43:10.055Z,1.09
2023-01-20T04:45:37.651Z,1.16
2023-01-20T04:48:08.853Z,1.06
2023-01-20T04:50:40.726Z,1.01
2023-01-20T04:53:13.447Z,0.97
2023-01-20T04:55:40.733Z,0.89
2023-01-20T04:58:10.262Z,0.96
2023-01-20T05:00:37.552Z,0.82
2023-01-20T05:03:06.176Z,0.98
2023-01-20T05:05:33.766Z,0.97
2023-01-20T05:08:01.195Z,1.04
2023-01-20T05:10:28.546Z,1.06
2023-01-20T05:12:55.895Z,0.89
2023-01-20T05:15:23.278Z,0.92
2023-01-20T05:17:50.578Z,1.03
2023-01-20T05:20:20.323Z,1.06
2023-01-20T05:22:48.216Z,1.08
2023-01-20T05:25:15.885Z,1.17
2023-01-20T05:27:44.981Z,1.19
2023-01-20T05:30:12.972Z,1.19
2023-01-20T05:32:40.311Z,1.13
2023-01-20T05:35:08.956Z,1.20
2023-01-20T05:37:36.192Z,1.20
2023-01-20T05:40:03.983Z,1.15
2023-01-20T05:42:33.038Z,1.13
2023-01-20T05:45:00.309Z,0.99
2023-01-20T05:47:28.490Z,0.78
2023-01-20T05:49:55.804Z,0.87
2023-01-20T05:52:23.187Z,1.07
2023-01-20T05:54:50.618Z,1.11
2023-01-20T05:57:18.459Z,1.10
2023-01-20T05:59:49.637Z,1.13
2023-01-20T06:02:18.836Z,1.06
2023-01-20T06:04:46.978Z,1.18
2023-01-20T06:07:15.342Z,1.14
2023-01-20T06:09:42.753Z,1.14
2023-01-20T06:12:10.172Z,1.04
2023-01-20T06:14:37.552Z,1.09
2023-01-20T06:17:05.103Z,1.17
2023-01-20T06:19:32.507Z,1.13
2023-01-20T06:21:59.805Z,1.11
2023-01-20T06:24:27.747Z,1.20
2023-01-20T06:26:55.203Z,1.20
2023-01-20T06:29:22.586Z,1.20
2023-01-20T06:31:49.987Z,1.27
2023-01-20T06:34:17.451Z,1.28
2023-01-20T06:36:44.903Z,1.13
2023-01-20T06:39:12.299Z,1.11
2023-01-20T06:41:39.799Z,1.21
2023-01-20T06:44:09.911Z,1.30
2023-01-20T06:46:37.400Z,1.19
2023-01-20T06:49:04.861Z,1.18
2023-01-20T06:51:33.553Z,1.22
2023-01-20T06:54:00.976Z,1.17
2023-01-20T06:56:28.404Z,1.28
2023-01-20T06:58:55.811Z,1.26
2023-01-20T07:01:28.880Z,1.27
2023-01-20T07:03:56.350Z,1.36
2023-01-20T07:06:38.608Z,1.40
2023-01-20T07:09:08.399Z,1.55
2023-01-20T07:11:36.028Z,1.69
2023-01-20T07:14:04.912Z,1.71
2023-01-20T07:16:32.907Z,1.70
2023-01-20T07:19:00.564Z,1.49
2023-01-20T07:21:28.567Z,1.61
2023-01-20T07:23:56.111Z,1.57
2023-01-20T07:26:26.377Z,1.63
2023-01-20T07:28:54.022Z,1.72
2023-01-20T07:31:23.862Z,1.87
2023-01-20T07:33:52.026Z,1.85
2023-01-20T07:36:19.434Z,1.97
2023-01-20T07:38:48.818Z,1.98
2023-01-20T07:41:18.277Z,1.75
2023-01-20T07:43:47.326Z,1.90
2023-01-20T07:46:15.220Z,2.07
2023-01-20T07:48:42.703Z,2.01
2023-01-20T07:51:13.038Z,2.09
2023-01-20T07:53:41.888Z,2.21
2023-01-20T07:56:12.578Z,2.15
2023-01-20T07:58:39.943Z,2.23
2023-01-20T08:01:09.340Z,2.19
2023-01-20T08:03:37.025Z,2.23
2023-01-20T08:06:10.887Z,2.23
2023-01-20T08:08:38.611Z,2.19
2023-01-20T08:11:08.070Z,2.18
2023-01-20T08:13:35.653Z,2.06
2023-01-20T08:16:05.279Z,2.13
2023-01-20T08:18:33.960Z,2.14
2023-01-20T08:21:06.471Z,2.21
2023-01-20T08:23:37.399Z,2.25
2023-01-20T08:26:06.785Z,2.28
2023-01-20T08:28:35.963Z,2.42
2023-01-20T08:31:09.202Z,2.55
2023-01-20T08:33:37.328Z,2.72
2023-01-20T08:36:06.819Z,2.81
2023-01-20T08:38:35.636Z,2.87
2023-01-20T08:41:07.980Z,2.90
2023-01-20T08:43:35.349Z,2.83
2023-01-20T08:46:06.629Z,3.11
2023-01-20T08:48:35.240Z,3.21
2023-01-20T08:51:14.366Z,3.31
2023-01-20T08:53:42.508Z,3.19
2023-01-20T08:56:10.797Z,3.33
2023-01-20T08:58:38.703Z,3.32
2023-01-20T09:01:11.966Z,3.40
2023-01-20T09:03:40.118Z,3.44
2023-01-20T09:06:08.771Z,3.56
2023-01-20T09:08:37.261Z,3.61
2023-01-20T09:11:13.973Z,3.85
2023-01-20T09:13:41.928Z,3.85
2023-01-20T09:16:15.022Z,3.98
2023-01-20T09:18:43.231Z,4.06
2023-01-20T09:21:11.409Z,4.04
2023-01-20T09:23:40.160Z,4.05
2023-01-20T09:26:08.274Z,4.19
2023-01-20T09:28:36.094Z,4.42
2023-01-20T09:31:09.610Z,4.54
2023-01-20T09:33:39.253Z,4.68
2023-01-20T09:36:09.346Z,4.62
2023-01-20T09:38:56.439Z,4.58
2023-01-20T09:41:47.409Z,4.65
2023-01-20T09:44:14.641Z,4.74
2023-01-20T09:47:21.756Z,4.77
2023-01-20T09:50:47.034Z,4.76
2023-01-20T09:53:33.283Z,4.89
2023-01-20T09:56:08.910Z,4.89
2023-01-20T09:59:08.422Z,5.02
2023-01-20T10:01:47.272Z,5.05
2023-01-20T10:04:29.813Z,5.06
2023-01-20T10:07:25.022Z,4.96
2023-01-20T10:10:41.132Z,5.12
2023-01-20T10:13:08.609Z,5.19
2023-01-20T10:15:37.804Z,5.14
2023-01-20T10:18:10.133Z,5.10
2023-01-20T10:20:47.811Z,5.41
2023-01-20T10:23:36.451Z,5.52
2023-01-20T10:26:13.362Z,5.71
2023-01-20T10:28:56.459Z,5.71
2023-01-20T10:31:29.261Z,5.72
2023-01-20T10:34:01.753Z,5.84
2023-01-20T10:36:31.067Z,5.88
2023-01-20T10:39:22.240Z,5.88
2023-01-20T10:41:55.234Z,5.95
2023-01-20T10:44:23.278Z,5.84
2023-01-20T10:47:13.706Z,6.00
2023-01-20T10:49:59.587Z,6.16
2023-01-20T10:52:54.494Z,6.18
2023-01-20T10:55:24.850Z,6.09
2023-01-20T10:57:56.591Z,6.09
2023-01-20T11:00:30.461Z,6.19
2023-01-20T11:03:01.060Z,6.10
2023-01-20T11:05:31.456Z,6.03
2023-01-20T11:08:00.131Z,6.03
2023-01-20T11:10:32.432Z,5.98
2023-01-20T11:13:01.673Z,6.06
2023-01-20T11:15:35.929Z,6.06
2023-01-20T11:18:20.034Z,6.11
2023-01-20T11:20:54.228Z,6.14
2023-01-20T11:23:37.645Z,6.37
2023-01-20T11:26:28.544Z,6.20
2023-01-20T11:28:59.836Z,6.30
2023-01-20T11:31:38.425Z,6.32
2023-01-20T11:34:21.665Z,6.38
2023-01-20T11:36:50.648Z,6.43
2023-01-20T11:39:27.285Z,6.45
2023-01-20T11:42:14.967Z,6.28
2023-01-20T11:44:45.800Z,6.38
2023-01-20T11:47:23.730Z,6.46
2023-01-20T11:50:09.322Z,6.37
2023-01-20T11:52:43.785Z,6.34
2023-01-20T11:55:20.599Z,6.53
2023-01-20T11:57:54.771Z,6.50
2023-01-20T12:00:43.249Z,6.54
2023-01-20T12:03:10.573Z,6.64
2023-01-20T12:05:44.049Z,6.68
2023-01-20T12:08:17.860Z,6.67
2023-01-20T12:10:46.221Z,6.67
2023-01-20T12:13:13.569Z,6.64
2023-01-20T12:15:46.715Z,6.86
2023-01-20T12:18:31.980Z,6.70
2023-01-20T12:21:08.033Z,6.73
2023-01-20T12:23:46.243Z,6.67
2023-01-20T12:26:19.485Z,6.68
2023-01-20T12:29:07.395Z,6.66
2023-01-20T12:31:34.873Z,6.57
2023-01-20T12:34:12.337Z,6.80
2023-01-20T12:37:08.385Z,6.70
2023-01-20T12:39:48.029Z,6.55
2023-01-20T12:43:07.322Z,6.60
2023-01-20T12:45:37.497Z,6.58
2023-01-20T12:48:31.070Z,6.62
2023-01-20T12:51:14.536Z,6.69
2023-01-20T12:54:13.437Z,6.63
2023-01-20T12:56:58.250Z,6.63
2023-01-20T13:00:00.662Z,6.63
2023-01-20T13:02:55.980Z,6.68
2023-01-20T13:05:41.665Z,6.85
2023-01-20T13:08:36.681Z,6.80
2023-01-20T13:11:12.081Z,6.89
2023-01-20T13:14:14.417Z,6.71
2023-01-20T13:17:07.088Z,6.81
2023-01-20T13:19:38.977Z,6.77
2023-01-20T13:22:21.317Z,6.72
2023-01-20T13:24:52.401Z,6.87
2023-01-20T13:27:26.605Z,6.76
2023-01-20T13:29:59.358Z,6.85
2023-01-20T13:32:48.819Z,6.95
2023-01-20T13:35:25.267Z,6.81
2023-01-20T13:37:54.946Z,6.97
2023-01-20T13:40:45.668Z,6.84
2023-01-20T13:43:25.441Z,6.84
2023-01-20T13:46:04.788Z,6.79
2023-01-20T13:48:33.640Z,6.79
2023-01-20T13:51:16.787Z,7.01
2023-01-20T13:53:44.287Z,7.02
2023-01-20T13:56:34.921Z,7.00
2023-01-20T13:59:02.289Z,6.93
2023-01-20T14:01:29.905Z,6.91
2023-01-20T14:04:16.559Z,6.79
2023-01-20T14:06:49.540Z,6.78
2023-01-20T14:09:25.194Z,6.88
2023-01-20T14:11:55.283Z,6.88
2023-01-20T14:14:25.037Z,6.82
2023-01-20T14:16:53.024Z,6.85
2023-01-20T14:19:34.096Z,6.84
2023-01-20T14:22:16.523Z,6.77
2023-01-20T14:24:46.108Z,6.75
2023-01-20T14:27:21.562Z,6.60
2023-01-20T14:29:54.571Z,6.74
2023-01-20T14:32:35.389Z,6.64
2023-01-20T14:35:13.742Z,6.56
2023-01-20T14:37:41.658Z,6.62
2023-01-20T14:40:11.663Z,6.86
2023-01-20T14:42:39.954Z,6.83
2023-01-20T14:45:22.043Z,6.90
2023-01-20T14:47:50.489Z,6.82
2023-01-20T14:50:19.696Z,6.84
2023-01-20T14:52:48.468Z,6.90
2023-01-20T14:55:29.159Z,6.72
2023-01-20T14:57:56.985Z,6.70
2023-01-20T15:00:34.038Z,6.71
2023-01-20T15:03:20.320Z,6.63
2023-01-20T15:05:55.441Z,6.56
2023-01-20T15:08:34.614Z,6.70
2023-01-20T15:11:14.332Z,6.67
2023-01-20T15:13:43.401Z,6.56
2023-01-20T15:16:14.076Z,6.54
2023-01-20T15:18:41.489Z,6.46
2023-01-20T15:21:24.630Z,6.49
2023-01-20T15:23:52.813Z,6.35
2023-01-20T15:26:30.402Z,6.25
2023-01-20T15:28:58.471Z,6.26
2023-01-20T15:31:26.667Z,6.28
2023-01-20T15:33:54.118Z,6.20
2023-01-20T15:36:29.843Z,6.10
2023-01-20T15:38:57.209Z,6.05
2023-01-20T15:41:24.937Z,5.97
2023-01-20T15:43:52.616Z,5.99
2023-01-20T15:46:20.404Z,5.93
2023-01-20T15:48:47.836Z,5.92
2023-01-20T15:51:17.440Z,5.90
2023-01-20T15:53:46.120Z,5.87
2023-01-20T15:56:21.420Z,5.87
2023-01-20T15:58:49.285Z,5.77
2023-01-20T16:01:20.682Z,5.77
2023-01-20T16:03:48.160Z,5.62
2023-01-20T16:06:17.962Z,5.64
2023-01-20T16:08:48.073Z,5.57
2023-01-20T16:11:17.271Z,5.52
2023-01-20T16:13:45.282Z,5.55
2023-01-20T16:16:15.369Z,5.50
2023-01-20T16:18:43.393Z,5.52
2023-01-20T16:21:16.538Z,5.39
2023-01-20T16:23:44.334Z,5.51
2023-01-20T16:26:23.248Z,5.49
2023-01-20T16:28:52.234Z,5.47
2023-01-20T16:31:20.199Z,5.41
2023-01-20T16:33:47.829Z,5.28
2023-01-20T16:36:17.484Z,5.33
2023-01-20T16:38:45.642Z,5.42
2023-01-20T16:41:27.447Z,5.39
2023-01-20T16:43:55.433Z,5.37
2023-01-20T16:46:25.304Z,5.35
2023-01-20T16:48:54.573Z,5.44
2023-01-20T16:51:25.347Z,5.37
2023-01-20T16:53:54.138Z,5.40
2023-01-20T16:56:26.224Z,5.29
2023-01-20T16:58:57.734Z,5.28
2023-01-20T17:01:26.140Z,5.38
2023-01-20T17:03:56.897Z,5.41
2023-01-20T17:06:26.719Z,5.31
2023-01-20T17:08:56.002Z,5.09
2023-01-20T17:11:28.293Z,5.09
2023-01-20T17:13:56.210Z,5.15
2023-01-20T17:16:26.122Z,5.22
2023-01-20T17:18:55.639Z,5.13
2023-01-20T17:21:25.432Z,5.14
2023-01-20T17:23:55.258Z,5.17
2023-01-20T17:26:23.644Z,5.16
2023-01-20T17:28:55.986Z,5.12
2023-01-20T17:31:23.858Z,4.95
2023-01-20T17:33:51.857Z,5.01
2023-01-20T17:36:19.476Z,4.96
2023-01-20T17:38:46.885Z,4.97
2023-01-20T17:41:15.136Z,5.04
2023-01-20T17:43:46.550Z,4.98
2023-01-20T17:46:25.143Z,4.95
2023-01-20T17:48:52.507Z,4.90
2023-01-20T17:51:22.587Z,5.00
2023-01-20T17:53:50.868Z,5.03
2023-01-20T17:56:20.275Z,5.00
2023-01-20T17:58:49.123Z,5.07
2023-01-20T18:01:20.547Z,4.99
2023-01-20T18:03:50.287Z,5.14
2023-01-20T18:06:19.969Z,5.02
2023-01-20T18:08:55.524Z,4.79
2023-01-20T18:11:24.571Z,4.87
2023-01-20T18:13:55.120Z,4.90
2023-01-20T18:16:26.620Z,4.85
2023-01-20T18:18:58.519Z,4.85
2023-01-20T18:21:31.415Z,4.79
2023-01-20T18:24:00.264Z,4.69
2023-01-20T18:26:29.833Z,4.64
2023-01-20T18:28:59.750Z,4.48
2023-01-20T18:31:28.749Z,4.37
2023-01-20T18:33:58.981Z,4.42
2023-01-20T18:36:28.909Z,4.36
2023-01-20T18:39:01.735Z,4.40
2023-01-20T18:41:31.358Z,4.24
2023-01-20T18:43:59.200Z,4.35
2023-01-20T18:46:27.767Z,4.39
2023-01-20T18:48:55.616Z,4.47
2023-01-20T18:51:26.475Z,4.40
2023-01-20T18:53:58.143Z,4.50
2023-01-20T18:56:26.564Z,4.35
2023-01-20T18:58:54.785Z,4.46
2023-01-20T19:01:28.834Z,4.37
2023-01-20T19:03:57.327Z,4.27
2023-01-20T19:06:26.799Z,4.02
2023-01-20T19:08:56.264Z,3.76
2023-01-20T19:11:26.245Z,3.74
2023-01-20T19:13:54.651Z,3.83
2023-01-20T19:16:24.615Z,3.84
2023-01-20T19:18:54.217Z,3.88
2023-01-20T19:21:23.069Z,3.86
2023-01-20T19:23:55.687Z,3.75
2023-01-20T19:26:25.531Z,3.75
2023-01-20T19:29:02.436Z,3.81
2023-01-20T19:31:32.714Z,3.73
2023-01-20T19:34:00.687Z,3.86
2023-01-20T19:36:28.300Z,3.69
2023-01-20T19:38:55.749Z,3.54
2023-01-20T19:41:28.344Z,3.53
2023-01-20T19:43:57.763Z,3.58
2023-01-20T19:46:27.385Z,3.68
2023-01-20T19:48:57.290Z,3.70
2023-01-20T19:51:25.672Z,3.76
2023-01-20T19:53:57.924Z,3.57
2023-01-20T19:56:27.568Z,3.55
2023-01-20T19:58:55.659Z,3.61
2023-01-20T20:01:25.745Z,3.73
2023-01-20T20:03:54.417Z,3.67
2023-01-20T20:06:33.440Z,3.65
2023-01-20T20:09:12.138Z,3.71
2023-01-20T20:11:39.550Z,3.73
2023-01-20T20:14:10.413Z,3.70
2023-01-20T20:16:38.194Z,3.68
2023-01-20T20:19:07.396Z,3.61
2023-01-20T20:21:35.220Z,3.57
2023-01-20T20:24:05.207Z,3.45
2023-01-20T20:26:36.083Z,3.59
2023-01-20T20:29:05.855Z,3.53
2023-01-20T20:31:35.659Z,3.58
2023-01-20T20:34:05.034Z,3.66
2023-01-20T20:36:33.519Z,3.52
2023-01-20T20:39:03.810Z,3.36
2023-01-20T20:41:31.932Z,3.24
2023-01-20T20:44:01.357Z,3.15
2023-01-20T20:46:29.876Z,3.23
2023-01-20T20:48:59.442Z,3.22
2023-01-20T20:51:28.757Z,3.19
2023-01-20T20:53:57.983Z,3.13
2023-01-20T20:56:28.055Z,3.20
2023-01-20T20:59:02.023Z,3.13
2023-01-20T21:01:34.409Z,3.21
2023-01-20T21:04:03.602Z,3.20
2023-01-20T21:06:32.077Z,3.23
2023-01-20T21:08:59.992Z,3.07
2023-01-20T21:11:28.402Z,3.04
2023-01-20T21:13:56.262Z,3.00
2023-01-20T21:16:25.923Z,3.07
2023-01-20T21:18:56.226Z,3.07
2023-01-20T21:21:27.686Z,3.03
2023-01-20T21:23:57.167Z,2.99
2023-01-20T21:26:29.620Z,3.01
2023-01-20T21:29:00.225Z,3.07
2023-01-20T21:31:27.805Z,3.11
2023-01-20T21:33:58.429Z,3.20
2023-01-20T21:36:27.711Z,3.25
2023-01-20T21:38:55.186Z,3.28
2023-01-20T21:41:22.488Z,2.97
2023-01-20T21:44:08.780Z,2.92
2023-01-20T21:46:39.491Z,2.71
2023-01-20T21:49:26.868Z,2.79
2023-01-20T21:52:13.804Z,2.81
2023-01-20T21:54:42.057Z,2.96
2023-01-20T21:57:14.493Z,2.76
2023-01-20T21:59:42.971Z,2.70
2023-01-20T22:02:15.045Z,2.68
2023-01-20T22:04:43.131Z,2.77
2023-01-20T22:07:11.257Z,2.63
2023-01-20T22:09:39.834Z,2.70
2023-01-20T22:12:08.414Z,2.75
2023-01-20T22:14:36.450Z,2.67
2023-01-20T22:17:04.671Z,2.65
2023-01-20T22:19:42.110Z,2.57
2023-01-20T22:22:10.197Z,2.44
2023-01-20T22:24:41.528Z,2.40
2023-01-20T22:27:16.173Z,2.29
2023-01-20T22:29:44.404Z,2.29
2023-01-20T22:32:12.375Z,2.19
2023-01-20T22:34:39.747Z,2.15
2023-01-20T22:37:08.077Z,1.89
2023-01-20T22:39:35.487Z,1.93
2023-01-20T22:42:03.998Z,2.08
2023-01-20T22:44:31.316Z,2.02
2023-01-20T22:46:59.081Z,2.09
2023-01-20T22:49:26.386Z,1.98
2023-01-20T22:51:57.827Z,2.13
2023-01-20T22:54:25.149Z,2.08
2023-01-20T22:56:52.405Z,2.13
2023-01-20T22:59:19.747Z,2.17
2023-01-20T23:01:47.120Z,2.01
2023-01-20T23:04:15.509Z,1.79
2023-01-20T23:06:42.813Z,2.08
2023-01-20T23:09:11.894Z,2.22
2023-01-20T23:11:40.229Z,2.11
2023-01-20T23:14:10.537Z,1.82
2023-01-20T23:16:38.591Z,1.84
2023-01-20T23:19:24.949Z,2.22
2023-01-20T23:21:52.314Z,1.83
2023-01-20T23:24:19.673Z,1.94
2023-01-20T23:26:46.915Z,2.03
2023-01-20T23:29:14.203Z,1.88
2023-01-20T23:31:41.520Z,1.99
2023-01-20T23:34:08.830Z,1.91
2023-01-20T23:36:36.114Z,2.11
2023-01-20T23:39:03.525Z,2.24
2023-01-20T23:41:30.803Z,2.30
2023-01-20T23:43:58.243Z,2.32
2023-01-20T23:46:25.693Z,2.21
2023-01-20T23:48:52.937Z,2.37
2023-01-20T23:51:20.517Z,2.53
2023-01-20T23:54:15.676Z,2.45
2023-01-20T23:56:42.991Z,2.50
2023-01-20T23:59:10.257Z,2.31
